sensor_id;sensor_type;location;lat;lon;timestamp;pressure;altitude;pressure_sealevel;temperature;humidity
75627;BME280;67372;49.404;11.034;2024-01-27T00:00:19;99703.66;;;3.91;75.37
75627;BME280;67372;49.404;11.034;2024-01-27T00:02:46;99704.22;;;3.85;75.58
75627;BME280;67372;49.404;11.034;2024-01-27T00:05:12;99691.56;;;3.79;75.70
75627;BME280;67372;49.404;11.034;2024-01-27T00:07:39;99690.44;;;3.72;76.05
75627;BME280;67372;49.404;11.034;2024-01-27T00:10:06;99692.50;;;3.68;76.29
75627;BME280;67372;49.404;11.034;2024-01-27T00:12:32;99690.97;;;3.65;75.41
75627;BME280;67372;49.404;11.034;2024-01-27T00:14:59;99687.63;;;3.63;76.05
75627;BME280;67372;49.404;11.034;2024-01-27T00:17:25;99693.19;;;3.60;75.69
75627;BME280;67372;49.404;11.034;2024-01-27T00:19:52;99695.50;;;3.54;75.88
75627;BME280;67372;49.404;11.034;2024-01-27T00:22:18;99704.81;;;3.48;75.87
75627;BME280;67372;49.404;11.034;2024-01-27T00:24:45;99706.88;;;3.45;76.12
75627;BME280;67372;49.404;11.034;2024-01-27T00:27:11;99703.94;;;3.38;76.89
75627;BME280;67372;49.404;11.034;2024-01-27T00:29:38;99705.88;;;3.36;76.74
75627;BME280;67372;49.404;11.034;2024-01-27T00:32:04;99718.50;;;3.32;76.33
75627;BME280;67372;49.404;11.034;2024-01-27T00:34:31;99722.22;;;3.30;76.34
75627;BME280;67372;49.404;11.034;2024-01-27T00:36:57;99717.06;;;3.28;76.44
75627;BME280;67372;49.404;11.034;2024-01-27T00:39:24;99715.81;;;3.23;76.88
75627;BME280;67372;49.404;11.034;2024-01-27T00:41:51;99719.53;;;3.20;77.27
75627;BME280;67372;49.404;11.034;2024-01-27T00:44:18;99720.78;;;3.16;77.62
75627;BME280;67372;49.404;11.034;2024-01-27T00:46:44;99719.94;;;3.16;77.55
75627;BME280;67372;49.404;11.034;2024-01-27T00:49:10;99722.72;;;3.14;78.16
75627;BME280;67372;49.404;11.034;2024-01-27T00:51:37;99736.16;;;3.11;77.61
75627;BME280;67372;49.404;11.034;2024-01-27T00:54:03;99731.84;;;3.10;77.82
75627;BME280;67372;49.404;11.034;2024-01-27T00:56:30;99734.63;;;3.08;78.03
75627;BME280;67372;49.404;11.034;2024-01-27T00:58:56;99743.47;;;3.07;77.96
75627;BME280;67372;49.404;11.034;2024-01-27T01:01:23;99738.94;;;3.10;77.21
75627;BME280;67372;49.404;11.034;2024-01-27T01:03:49;99751.28;;;3.09;76.86
75627;BME280;67372;49.404;11.034;2024-01-27T01:06:16;99760.25;;;3.06;77.92
75627;BME280;67372;49.404;11.034;2024-01-27T01:08:42;99758.97;;;3.01;78.11
75627;BME280;67372;49.404;11.034;2024-01-27T01:11:09;99757.44;;;2.98;77.64
75627;BME280;67372;49.404;11.034;2024-01-27T01:13:35;99761.03;;;2.97;77.44
75627;BME280;67372;49.404;11.034;2024-01-27T01:16:02;99761.31;;;2.94;77.35
75627;BME280;67372;49.404;11.034;2024-01-27T01:18:28;99772.09;;;2.91;78.12
75627;BME280;67372;49.404;11.034;2024-01-27T01:20:55;99768.91;;;2.88;77.82
75627;BME280;67372;49.404;11.034;2024-01-27T01:23:21;99776.94;;;2.86;78.32
75627;BME280;67372;49.404;11.034;2024-01-27T01:25:48;99766.41;;;2.86;77.79
75627;BME280;67372;49.404;11.034;2024-01-27T01:28:14;99763.75;;;2.86;77.70
75627;BME280;67372;49.404;11.034;2024-01-27T01:30:41;99771.53;;;2.88;77.49
75627;BME280;67372;49.404;11.034;2024-01-27T01:33:07;99766.63;;;2.83;77.48
75627;BME280;67372;49.404;11.034;2024-01-27T01:35:34;99766.03;;;2.80;77.57
75627;BME280;67372;49.404;11.034;2024-01-27T01:38:00;99758.28;;;2.78;77.91
75627;BME280;67372;49.404;11.034;2024-01-27T01:40:26;99773.38;;;2.76;77.23
75627;BME280;67372;49.404;11.034;2024-01-27T01:42:53;99778.06;;;2.72;77.47
75627;BME280;67372;49.404;11.034;2024-01-27T01:45:19;99787.19;;;2.68;78.21
75627;BME280;67372;49.404;11.034;2024-01-27T01:47:46;99790.22;;;2.64;78.18
75627;BME280;67372;49.404;11.034;2024-01-27T01:50:13;99785.31;;;2.59;78.09
75627;BME280;67372;49.404;11.034;2024-01-27T01:52:39;99791.78;;;2.55;78.20
75627;BME280;67372;49.404;11.034;2024-01-27T01:55:06;99800.91;;;2.51;78.12
75627;BME280;67372;49.404;11.034;2024-01-27T01:57:33;99793.78;;;2.42;78.72
75627;BME280;67372;49.404;11.034;2024-01-27T01:59:59;99807.31;;;2.37;78.71
75627;BME280;67372;49.404;11.034;2024-01-27T02:02:26;99805.03;;;2.33;79.23
75627;BME280;67372;49.404;11.034;2024-01-27T02:04:52;99806.13;;;2.30;79.08
75627;BME280;67372;49.404;11.034;2024-01-27T02:07:19;99803.72;;;2.27;78.95
75627;BME280;67372;49.404;11.034;2024-01-27T02:09:45;99810.91;;;2.25;79.82
75627;BME280;67372;49.404;11.034;2024-01-27T02:12:11;99805.91;;;2.22;79.38
75627;BME280;67372;49.404;11.034;2024-01-27T02:14:38;99804.34;;;2.20;79.54
75627;BME280;67372;49.404;11.034;2024-01-27T02:17:04;99806.41;;;2.16;79.79
75627;BME280;67372;49.404;11.034;2024-01-27T02:19:31;99806.41;;;2.16;79.86
75627;BME280;67372;49.404;11.034;2024-01-27T02:21:57;99809.38;;;2.11;79.86
75627;BME280;67372;49.404;11.034;2024-01-27T02:24:24;99815.84;;;2.07;80.28
75627;BME280;67372;49.404;11.034;2024-01-27T02:26:51;99824.00;;;2.04;80.88
75627;BME280;67372;49.404;11.034;2024-01-27T02:29:17;99824.00;;;2.04;80.44
75627;BME280;67372;49.404;11.034;2024-01-27T02:31:43;99828.56;;;2.02;80.35
75627;BME280;67372;49.404;11.034;2024-01-27T02:34:10;99825.09;;;2.02;80.44
75627;BME280;67372;49.404;11.034;2024-01-27T02:36:36;99828.78;;;1.99;80.35
75627;BME280;67372;49.404;11.034;2024-01-27T02:39:03;99829.75;;;1.98;80.33
75627;BME280;67372;49.404;11.034;2024-01-27T02:41:29;99836.09;;;1.96;80.20
75627;BME280;67372;49.404;11.034;2024-01-27T02:43:55;99841.38;;;1.96;80.28
75627;BME280;67372;49.404;11.034;2024-01-27T02:46:22;99838.47;;;1.88;80.78
75627;BME280;67372;49.404;11.034;2024-01-27T02:48:48;99842.31;;;1.83;80.53
75627;BME280;67372;49.404;11.034;2024-01-27T02:51:19;99844.34;;;1.80;81.35
75627;BME280;67372;49.404;11.034;2024-01-27T02:53:46;99849.13;;;1.75;81.07
75627;BME280;67372;49.404;11.034;2024-01-27T02:56:12;99846.63;;;1.73;81.14
75627;BME280;67372;49.404;11.034;2024-01-27T02:58:40;99848.53;;;1.71;81.14
75627;BME280;67372;49.404;11.034;2024-01-27T03:01:07;99850.56;;;1.68;81.71
75627;BME280;67372;49.404;11.034;2024-01-27T03:03:33;99860.13;;;1.69;81.13
75627;BME280;67372;49.404;11.034;2024-01-27T03:06:00;99857.75;;;1.66;81.50
75627;BME280;67372;49.404;11.034;2024-01-27T03:08:26;99857.84;;;1.64;81.31
75627;BME280;67372;49.404;11.034;2024-01-27T03:10:53;99853.22;;;1.68;81.08
75627;BME280;67372;49.404;11.034;2024-01-27T03:13:19;99859.44;;;1.67;81.53
75627;BME280;67372;49.404;11.034;2024-01-27T03:15:45;99861.94;;;1.68;81.06
75627;BME280;67372;49.404;11.034;2024-01-27T03:18:12;99860.13;;;1.69;81.15
75627;BME280;67372;49.404;11.034;2024-01-27T03:20:38;99869.00;;;1.68;81.07
75627;BME280;67372;49.404;11.034;2024-01-27T03:23:05;99867.31;;;1.67;80.99
75627;BME280;67372;49.404;11.034;2024-01-27T03:25:31;99869.19;;;1.65;81.18
75627;BME280;67372;49.404;11.034;2024-01-27T03:27:58;99867.41;;;1.65;81.37
75627;BME280;67372;49.404;11.034;2024-01-27T03:30:24;99865.66;;;1.66;80.82
75627;BME280;67372;49.404;11.034;2024-01-27T03:32:51;99870.91;;;1.66;80.92
75627;BME280;67372;49.404;11.034;2024-01-27T03:35:17;99874.38;;;1.66;80.82
75627;BME280;67372;49.404;11.034;2024-01-27T03:37:44;99880.34;;;1.68;80.78
75627;BME280;67372;49.404;11.034;2024-01-27T03:40:11;99883.09;;;1.67;80.78
75627;BME280;67372;49.404;11.034;2024-01-27T03:42:37;99883.31;;;1.64;80.82
75627;BME280;67372;49.404;11.034;2024-01-27T03:45:04;99880.91;;;1.61;80.63
75627;BME280;67372;49.404;11.034;2024-01-27T03:47:31;99875.06;;;1.57;80.79
75627;BME280;67372;49.404;11.034;2024-01-27T03:49:57;99884.03;;;1.54;80.63
75627;BME280;67372;49.404;11.034;2024-01-27T03:52:23;99880.06;;;1.49;80.65
75627;BME280;67372;49.404;11.034;2024-01-27T03:54:50;99883.91;;;1.45;80.68
75627;BME280;67372;49.404;11.034;2024-01-27T03:57:16;99893.06;;;1.39;80.92
75627;BME280;67372;49.404;11.034;2024-01-27T03:59:43;99891.75;;;1.34;81.66
75627;BME280;67372;49.404;11.034;2024-01-27T04:02:09;99899.16;;;1.29;81.44
75627;BME280;67372;49.404;11.034;2024-01-27T04:04:35;99905.59;;;1.25;81.19
75627;BME280;67372;49.404;11.034;2024-01-27T04:07:02;99910.34;;;1.19;81.33
75627;BME280;67372;49.404;11.034;2024-01-27T04:09:29;99905.31;;;1.16;81.34
75627;BME280;67372;49.404;11.034;2024-01-27T04:11:55;99907.09;;;1.16;81.64
75627;BME280;67372;49.404;11.034;2024-01-27T04:14:22;99908.16;;;1.13;81.32
75627;BME280;67372;49.404;11.034;2024-01-27T04:16:48;99905.88;;;1.09;81.48
75627;BME280;67372;49.404;11.034;2024-01-27T04:19:14;99911.47;;;1.04;82.71
75627;BME280;67372;49.404;11.034;2024-01-27T04:21:41;99917.19;;;0.98;82.83
75627;BME280;67372;49.404;11.034;2024-01-27T04:24:07;99927.06;;;0.95;82.43
75627;BME280;67372;49.404;11.034;2024-01-27T04:26:34;99913.56;;;0.88;82.36
75627;BME280;67372;49.404;11.034;2024-01-27T04:29:00;99928.69;;;0.84;82.05
75627;BME280;67372;49.404;11.034;2024-01-27T04:31:27;99921.16;;;0.80;82.45
75627;BME280;67372;49.404;11.034;2024-01-27T04:33:53;99921.28;;;0.78;81.99
75627;BME280;67372;49.404;11.034;2024-01-27T04:36:27;99923.41;;;0.73;82.36
75627;BME280;67372;49.404;11.034;2024-01-27T04:38:54;99923.72;;;0.69;82.32
75627;BME280;67372;49.404;11.034;2024-01-27T04:41:20;99923.94;;;0.66;82.32
75627;BME280;67372;49.404;11.034;2024-01-27T04:43:47;99924.88;;;0.65;81.78
75627;BME280;67372;49.404;11.034;2024-01-27T04:46:13;99928.56;;;0.62;81.78
75627;BME280;67372;49.404;11.034;2024-01-27T04:48:40;99917.47;;;0.58;82.00
75627;BME280;67372;49.404;11.034;2024-01-27T04:51:07;99921.38;;;0.53;83.35
75627;BME280;67372;49.404;11.034;2024-01-27T04:53:33;99923.28;;;0.51;83.16
75627;BME280;67372;49.404;11.034;2024-01-27T04:55:59;99929.66;;;0.47;82.65
75627;BME280;67372;49.404;11.034;2024-01-27T04:58:26;99929.03;;;0.43;83.23
75627;BME280;67372;49.404;11.034;2024-01-27T05:00:52;99946.81;;;0.40;83.10
75627;BME280;67372;49.404;11.034;2024-01-27T05:03:19;99935.56;;;0.38;83.18
75627;BME280;67372;49.404;11.034;2024-01-27T05:05:45;99933.91;;;0.37;83.56
75627;BME280;67372;49.404;11.034;2024-01-27T05:08:11;99945.47;;;0.34;83.07
75627;BME280;67372;49.404;11.034;2024-01-27T05:10:38;99944.00;;;0.30;83.61
75627;BME280;67372;49.404;11.034;2024-01-27T05:13:04;99940.66;;;0.28;83.20
75627;BME280;67372;49.404;11.034;2024-01-27T05:15:31;99942.53;;;0.26;82.78
75627;BME280;67372;49.404;11.034;2024-01-27T05:17:57;99961.94;;;0.23;83.21
75627;BME280;67372;49.404;11.034;2024-01-27T05:20:24;99963.72;;;0.23;82.64
75627;BME280;67372;49.404;11.034;2024-01-27T05:22:50;99960.59;;;0.18;82.57
75627;BME280;67372;49.404;11.034;2024-01-27T05:25:17;99964.28;;;0.15;82.40
75627;BME280;67372;49.404;11.034;2024-01-27T05:27:43;99972.47;;;0.11;82.70
75627;BME280;67372;49.404;11.034;2024-01-27T05:30:10;99977.94;;;0.08;82.86
75627;BME280;67372;49.404;11.034;2024-01-27T05:32:36;99970.59;;;0.00;84.49
75627;BME280;67372;49.404;11.034;2024-01-27T05:35:03;99976.44;;;-0.09;86.08
75627;BME280;67372;49.404;11.034;2024-01-27T05:37:30;99976.78;;;-0.14;85.09
75627;BME280;67372;49.404;11.034;2024-01-27T05:39:56;99980.44;;;-0.16;84.88
75627;BME280;67372;49.404;11.034;2024-01-27T05:42:23;99995.44;;;-0.18;84.18
75627;BME280;67372;49.404;11.034;2024-01-27T05:44:49;99983.38;;;-0.21;84.10
75627;BME280;67372;49.404;11.034;2024-01-27T05:47:16;99984.44;;;-0.23;84.95
75627;BME280;67372;49.404;11.034;2024-01-27T05:49:42;99979.56;;;-0.29;85.90
75627;BME280;67372;49.404;11.034;2024-01-27T05:52:09;99983.34;;;-0.34;85.96
75627;BME280;67372;49.404;11.034;2024-01-27T05:54:35;99987.03;;;-0.36;85.58
75627;BME280;67372;49.404;11.034;2024-01-27T05:57:02;99986.28;;;-0.38;85.80
75627;BME280;67372;49.404;11.034;2024-01-27T05:59:29;99985.44;;;-0.39;85.50
75627;BME280;67372;49.404;11.034;2024-01-27T06:01:55;99986.50;;;-0.41;85.32
75627;BME280;67372;49.404;11.034;2024-01-27T06:04:21;99988.38;;;-0.43;85.95
75627;BME280;67372;49.404;11.034;2024-01-27T06:06:48;99989.34;;;-0.44;84.86
75627;BME280;67372;49.404;11.034;2024-01-27T06:09:14;99992.06;;;-0.46;85.41
75627;BME280;67372;49.404;11.034;2024-01-27T06:11:41;99993.00;;;-0.47;85.45
75627;BME280;67372;49.404;11.034;2024-01-27T06:14:07;99994.00;;;-0.49;85.66
75627;BME280;67372;49.404;11.034;2024-01-27T06:16:33;99999.47;;;-0.52;86.37
75627;BME280;67372;49.404;11.034;2024-01-27T06:19:00;100007.44;;;-0.54;85.56
75627;BME280;67372;49.404;11.034;2024-01-27T06:21:26;100004.91;;;-0.55;85.62
75627;BME280;67372;49.404;11.034;2024-01-27T06:23:53;99998.84;;;-0.56;85.73
75627;BME280;67372;49.404;11.034;2024-01-27T06:26:19;100001.56;;;-0.57;85.17
75627;BME280;67372;49.404;11.034;2024-01-27T06:28:46;99998.94;;;-0.57;86.13
75627;BME280;67372;49.404;11.034;2024-01-27T06:31:12;100002.59;;;-0.60;85.55
75627;BME280;67372;49.404;11.034;2024-01-27T06:33:38;100003.44;;;-0.59;85.73
75627;BME280;67372;49.404;11.034;2024-01-27T06:36:05;100006.91;;;-0.59;85.64
75627;BME280;67372;49.404;11.034;2024-01-27T06:38:32;100012.13;;;-0.59;86.45
75627;BME280;67372;49.404;11.034;2024-01-27T06:40:58;100013.06;;;-0.60;86.85
75627;BME280;67372;49.404;11.034;2024-01-27T06:43:25;100012.25;;;-0.60;87.26
75627;BME280;67372;49.404;11.034;2024-01-27T06:45:51;100020.75;;;-0.57;87.35
75627;BME280;67372;49.404;11.034;2024-01-27T06:48:18;100012.66;;;-0.54;87.11
75627;BME280;67372;49.404;11.034;2024-01-27T06:50:44;100009.75;;;-0.49;86.43
75627;BME280;67372;49.404;11.034;2024-01-27T06:53:11;100010.41;;;-0.46;86.83
75627;BME280;67372;49.404;11.034;2024-01-27T06:55:37;100012.72;;;-0.41;86.29
75627;BME280;67372;49.404;11.034;2024-01-27T06:58:08;100016.19;;;-0.41;86.42
75627;BME280;67372;49.404;11.034;2024-01-27T07:00:35;100021.09;;;-0.36;86.71
75627;BME280;67372;49.404;11.034;2024-01-27T07:03:01;100025.50;;;-0.37;87.24
75627;BME280;67372;49.404;11.034;2024-01-27T07:05:28;100030.53;;;-0.34;86.98
75627;BME280;67372;49.404;11.034;2024-01-27T07:07:54;100028.56;;;-0.30;87.18
75627;BME280;67372;49.404;11.034;2024-01-27T07:10:20;100023.22;;;-0.28;88.05
75627;BME280;67372;49.404;11.034;2024-01-27T07:12:47;100022.88;;;-0.24;86.92
75627;BME280;67372;49.404;11.034;2024-01-27T07:15:13;100026.06;;;-0.19;87.34
75627;BME280;67372;49.404;11.034;2024-01-27T07:17:40;100034.16;;;-0.09;87.88
75627;BME280;67372;49.404;11.034;2024-01-27T07:20:07;100032.50;;;0.03;87.42
75627;BME280;67372;49.404;11.034;2024-01-27T07:22:33;100037.84;;;0.14;86.81
75627;BME280;67372;49.404;11.034;2024-01-27T07:25:00;100030.16;;;0.23;86.61
75627;BME280;67372;49.404;11.034;2024-01-27T07:27:26;100035.75;;;0.32;86.37
75627;BME280;67372;49.404;11.034;2024-01-27T07:29:52;100031.41;;;0.43;85.38
75627;BME280;67372;49.404;11.034;2024-01-27T07:32:19;100032.56;;;0.52;85.19
75627;BME280;67372;49.404;11.034;2024-01-27T07:34:45;100033.94;;;0.57;85.25
75627;BME280;67372;49.404;11.034;2024-01-27T07:37:12;100040.53;;;0.63;84.90
75627;BME280;67372;49.404;11.034;2024-01-27T07:39:38;100047.84;;;0.71;84.75
75627;BME280;67372;49.404;11.034;2024-01-27T07:44:46;100043.22;;;0.87;84.70
75627;BME280;67372;49.404;11.034;2024-01-27T07:49:54;100049.78;;;1.05;84.34
75627;BME280;67372;49.404;11.034;2024-01-27T07:52:21;100050.69;;;1.17;85.14
75627;BME280;67372;49.404;11.034;2024-01-27T07:54:47;100057.81;;;1.28;84.70
75627;BME280;67372;49.404;11.034;2024-01-27T07:57:14;100052.69;;;1.37;84.30
75627;BME280;67372;49.404;11.034;2024-01-27T08:21:16;100078.25;;;2.18;80.33
75627;BME280;67372;49.404;11.034;2024-01-27T08:23:43;100085.78;;;2.23;81.10
75627;BME280;67372;49.404;11.034;2024-01-27T08:26:09;100079.44;;;2.25;79.76
75627;BME280;67372;49.404;11.034;2024-01-27T08:28:36;100090.22;;;2.33;80.56
75627;BME280;67372;49.404;11.034;2024-01-27T08:31:02;100087.25;;;2.38;79.64
75627;BME280;67372;49.404;11.034;2024-01-27T08:33:29;100083.31;;;2.43;79.43
75627;BME280;67372;49.404;11.034;2024-01-27T08:35:55;100076.38;;;2.54;79.73
75627;BME280;67372;49.404;11.034;2024-01-27T08:38:22;100081.16;;;2.60;78.46
75627;BME280;67372;49.404;11.034;2024-01-27T08:40:48;100081.66;;;2.65;77.50
75627;BME280;67372;49.404;11.034;2024-01-27T08:43:15;100091.84;;;2.69;78.56
75627;BME280;67372;49.404;11.034;2024-01-27T08:45:41;100085.22;;;2.75;77.99
75627;BME280;67372;49.404;11.034;2024-01-27T08:48:08;100085.72;;;2.80;77.71
75627;BME280;67372;49.404;11.034;2024-01-27T08:50:34;100099.03;;;2.90;78.68
75627;BME280;67372;49.404;11.034;2024-01-27T08:53:01;100092.28;;;2.97;77.59
75627;BME280;67372;49.404;11.034;2024-01-27T08:55:28;100095.03;;;3.06;78.74
75627;BME280;67372;49.404;11.034;2024-01-27T08:57:56;100084.63;;;3.16;76.72
75627;BME280;67372;49.404;11.034;2024-01-27T09:00:23;100078.97;;;3.21;76.25
75627;BME280;67372;49.404;11.034;2024-01-27T09:02:50;100084.56;;;3.27;76.90
75627;BME280;67372;49.404;11.034;2024-01-27T09:05:16;100088.66;;;3.31;74.84
75627;BME280;67372;49.404;11.034;2024-01-27T09:07:43;100088.38;;;3.46;76.02
75627;BME280;67372;49.404;11.034;2024-01-27T11:04:49;100099.38;;;5.37;66.62
75627;BME280;67372;49.404;11.034;2024-01-27T12:35:53;100064.44;;;6.76;58.09
75627;BME280;67372;49.404;11.034;2024-01-27T12:38:20;100079.22;;;6.79;56.88
75627;BME280;67372;49.404;11.034;2024-01-27T12:40:48;100074.53;;;6.73;57.94
75627;BME280;67372;49.404;11.034;2024-01-27T12:45:49;100063.03;;;6.82;55.47
75627;BME280;67372;49.404;11.034;2024-01-27T13:23:14;100069.69;;;6.96;56.71
75627;BME280;67372;49.404;11.034;2024-01-27T13:42:09;100056.19;;;6.89;55.61
75627;BME280;67372;49.404;11.034;2024-01-27T13:44:36;100058.00;;;6.89;56.02
75627;BME280;67372;49.404;11.034;2024-01-27T13:47:03;100054.06;;;6.93;57.07
75627;BME280;67372;49.404;11.034;2024-01-27T13:49:31;100054.44;;;6.98;56.33
75627;BME280;67372;49.404;11.034;2024-01-27T13:51:58;100041.72;;;7.01;55.77
75627;BME280;67372;49.404;11.034;2024-01-27T13:54:24;100038.91;;;7.03;54.01
75627;BME280;67372;49.404;11.034;2024-01-27T13:56:51;100029.88;;;6.96;54.87
75627;BME280;67372;49.404;11.034;2024-01-27T13:59:17;100019.88;;;6.90;55.58
75627;BME280;67372;49.404;11.034;2024-01-27T14:01:43;100018.88;;;6.91;55.33
75627;BME280;67372;49.404;11.034;2024-01-27T14:06:54;100014.75;;;6.78;55.26
75627;BME280;67372;49.404;11.034;2024-01-27T14:09:22;100008.91;;;6.75;56.37
75627;BME280;67372;49.404;11.034;2024-01-27T14:11:49;100000.13;;;6.74;56.21
75627;BME280;67372;49.404;11.034;2024-01-27T14:14:15;100002.06;;;6.72;56.43
75627;BME280;67372;49.404;11.034;2024-01-27T14:16:44;100007.69;;;6.69;56.49
75627;BME280;67372;49.404;11.034;2024-01-27T14:19:10;100011.56;;;6.75;56.69
75627;BME280;67372;49.404;11.034;2024-01-27T14:21:37;100012.25;;;6.77;55.26
75627;BME280;67372;49.404;11.034;2024-01-27T14:24:06;100010.88;;;6.73;55.79
75627;BME280;67372;49.404;11.034;2024-01-27T14:26:33;100010.78;;;6.65;56.35
75627;BME280;67372;49.404;11.034;2024-01-27T14:28:59;100013.84;;;6.60;55.61
75627;BME280;67372;49.404;11.034;2024-01-27T14:31:26;100016.34;;;6.62;57.25
75627;BME280;67372;49.404;11.034;2024-01-27T14:33:52;100016.91;;;6.65;56.78
75627;BME280;67372;49.404;11.034;2024-01-27T14:36:19;100014.25;;;6.65;57.00
75627;BME280;67372;49.404;11.034;2024-01-27T14:38:46;100020.56;;;6.64;57.76
75627;BME280;67372;49.404;11.034;2024-01-27T14:41:12;100016.91;;;6.65;56.99
75627;BME280;67372;49.404;11.034;2024-01-27T14:43:39;100014.13;;;6.67;57.13
75627;BME280;67372;49.404;11.034;2024-01-27T14:46:05;100014.13;;;6.67;56.08
75627;BME280;67372;49.404;11.034;2024-01-27T14:48:32;100018.44;;;6.68;56.87
75627;BME280;67372;49.404;11.034;2024-01-27T14:50:59;100007.00;;;6.67;56.42
75627;BME280;67372;49.404;11.034;2024-01-27T14:53:26;100010.63;;;6.66;56.56
75627;BME280;67372;49.404;11.034;2024-01-27T14:55:52;100009.22;;;6.62;56.64
75627;BME280;67372;49.404;11.034;2024-01-27T14:58:18;100003.53;;;6.57;56.62
75627;BME280;67372;49.404;11.034;2024-01-27T15:00:45;100008.16;;;6.55;56.52
75627;BME280;67372;49.404;11.034;2024-01-27T15:03:12;100007.91;;;6.49;56.70
75627;BME280;67372;49.404;11.034;2024-01-27T15:05:38;100006.00;;;6.41;57.23
75627;BME280;67372;49.404;11.034;2024-01-27T15:08:05;100002.75;;;6.37;57.00
75627;BME280;67372;49.404;11.034;2024-01-27T15:10:31;100002.50;;;6.31;57.55
75627;BME280;67372;49.404;11.034;2024-01-27T15:12:57;100000.31;;;6.26;57.62
75627;BME280;67372;49.404;11.034;2024-01-27T15:15:24;100001.44;;;6.24;57.51
75627;BME280;67372;49.404;11.034;2024-01-27T15:17:50;99996.97;;;6.14;57.34
75627;BME280;67372;49.404;11.034;2024-01-27T15:20:17;100000.75;;;6.12;57.98
75627;BME280;67372;49.404;11.034;2024-01-27T15:22:44;100009.13;;;6.07;58.21
75627;BME280;67372;49.404;11.034;2024-01-27T15:25:11;100010.41;;;6.03;59.67
75627;BME280;67372;49.404;11.034;2024-01-27T15:27:37;100010.53;;;6.02;58.92
75627;BME280;67372;49.404;11.034;2024-01-27T15:30:04;100014.31;;;5.99;58.73
75627;BME280;67372;49.404;11.034;2024-01-27T15:32:31;100011.13;;;5.96;58.38
75627;BME280;67372;49.404;11.034;2024-01-27T15:34:57;100014.41;;;5.88;59.05
75627;BME280;67372;49.404;11.034;2024-01-27T15:37:24;100007.34;;;5.79;58.92
75627;BME280;67372;49.404;11.034;2024-01-27T15:39:50;100011.81;;;5.69;59.45
75627;BME280;67372;49.404;11.034;2024-01-27T15:42:17;100007.75;;;5.65;59.32
75627;BME280;67372;49.404;11.034;2024-01-27T15:44:43;100009.16;;;5.59;58.96
75627;BME280;67372;49.404;11.034;2024-01-27T15:47:09;100008.75;;;5.54;58.92
75627;BME280;67372;49.404;11.034;2024-01-27T15:49:36;100002.34;;;5.47;59.60
75627;BME280;67372;49.404;11.034;2024-01-27T15:52:03;99996.59;;;5.42;59.42
75627;BME280;67372;49.404;11.034;2024-01-27T16:42:52;100062.72;;;3.48;64.78
75627;BME280;67372;49.404;11.034;2024-01-27T16:45:19;100058.91;;;3.41;64.75
75627;BME280;67372;49.404;11.034;2024-01-27T16:47:45;100055.94;;;3.34;65.35
75627;BME280;67372;49.404;11.034;2024-01-27T16:50:11;100064.44;;;3.26;65.48
75627;BME280;67372;49.404;11.034;2024-01-27T16:52:38;100071.78;;;3.23;65.05
75627;BME280;67372;49.404;11.034;2024-01-27T16:55:05;100068.09;;;3.14;66.02
75627;BME280;67372;49.404;11.034;2024-01-27T16:57:31;100067.97;;;3.04;66.50
75627;BME280;67372;49.404;11.034;2024-01-27T16:59:58;100074.44;;;3.00;65.90
75627;BME280;67372;49.404;11.034;2024-01-27T17:02:25;100073.00;;;2.96;66.60
75627;BME280;67372;49.404;11.034;2024-01-27T17:04:51;100072.41;;;2.93;66.16
75627;BME280;67372;49.404;11.034;2024-01-27T17:07:18;100072.78;;;2.88;66.91
75627;BME280;67372;49.404;11.034;2024-01-27T17:09:44;100076.72;;;2.83;66.70
75627;BME280;67372;49.404;11.034;2024-01-27T17:12:10;100080.81;;;2.75;67.57
75627;BME280;67372;49.404;11.034;2024-01-27T17:14:39;100087.63;;;2.67;68.09
75627;BME280;67372;49.404;11.034;2024-01-27T17:17:06;100086.31;;;2.61;67.67
75627;BME280;67372;49.404;11.034;2024-01-27T17:19:32;100089.53;;;2.54;68.52
75627;BME280;67372;49.404;11.034;2024-01-27T17:21:59;100091.94;;;2.45;68.75
75627;BME280;67372;49.404;11.034;2024-01-27T17:26:57;100099.19;;;2.31;71.42
75627;BME280;67372;49.404;11.034;2024-01-27T17:29:23;100100.75;;;2.22;69.87
75627;BME280;67372;49.404;11.034;2024-01-27T17:31:50;100104.69;;;2.17;70.25
75627;BME280;67372;49.404;11.034;2024-01-27T17:34:16;100096.38;;;2.10;69.86
75627;BME280;67372;49.404;11.034;2024-01-27T17:36:43;100104.63;;;2.05;70.69
75627;BME280;67372;49.404;11.034;2024-01-27T17:39:09;100104.38;;;1.97;71.25
75627;BME280;67372;49.404;11.034;2024-01-27T17:41:35;100104.00;;;1.91;70.90
75627;BME280;67372;49.404;11.034;2024-01-27T17:44:02;100105.88;;;1.89;70.64
75627;BME280;67372;49.404;11.034;2024-01-27T17:46:28;100104.19;;;1.88;70.63
75627;BME280;67372;49.404;11.034;2024-01-27T17:48:55;100111.38;;;1.85;70.41
75627;BME280;67372;49.404;11.034;2024-01-27T17:51:21;100102.88;;;1.82;71.00
75627;BME280;67372;49.404;11.034;2024-01-27T17:53:48;100099.63;;;1.78;71.72
75627;BME280;67372;49.404;11.034;2024-01-27T17:56:21;100094.72;;;1.74;71.68
75627;BME280;67372;49.404;11.034;2024-01-27T17:58:47;100097.59;;;1.71;71.98
75627;BME280;67372;49.404;11.034;2024-01-27T18:01:14;100090.13;;;1.65;72.21
75627;BME280;67372;49.404;11.034;2024-01-27T18:03:40;100087.72;;;1.62;71.85
75627;BME280;67372;49.404;11.034;2024-01-27T18:06:07;100091.41;;;1.59;71.95
75627;BME280;67372;49.404;11.034;2024-01-27T18:08:34;100092.47;;;1.57;72.77
75627;BME280;67372;49.404;11.034;2024-01-27T18:11:00;100096.06;;;1.56;72.57
75627;BME280;67372;49.404;11.034;2024-01-27T18:13:27;100099.88;;;1.51;72.78
75627;BME280;67372;49.404;11.034;2024-01-27T18:15:53;100100.09;;;1.48;72.59
75627;BME280;67372;49.404;11.034;2024-01-27T18:18:19;100093.50;;;1.43;72.70
75627;BME280;67372;49.404;11.034;2024-01-27T18:20:46;100093.69;;;1.40;72.99
75627;BME280;67372;49.404;11.034;2024-01-27T18:23:12;100093.94;;;1.37;73.01
75627;BME280;67372;49.404;11.034;2024-01-27T18:25:39;100094.38;;;1.31;73.80